sensor_id;sensor_type;location;lat;lon;timestamp;P1;durP1;ratioP1;P2;durP2;ratioP2
5465;SDS011;2755;50.728;7.108;2024-03-02T00:01:09;128.77;;;51.90;;
5465;SDS011;2755;50.728;7.108;2024-03-02T00:03:38;126.33;;;51.33;;
5465;SDS011;2755;50.728;7.108;2024-03-02T00:06:04;129.17;;;52.70;;
5465;SDS011;2755;50.728;7.108;2024-03-02T00:08:30;126.70;;;49.30;;
5465;SDS011;2755;50.728;7.108;2024-03-02T00:10:56;125.40;;;47.80;;
5465;SDS011;2755;50.728;7.108;2024-03-02T00:13:23;124.13;;;46.90;;
5465;SDS011;2755;50.728;7.108;2024-03-02T00:15:56;126.97;;;49.90;;
5465;SDS011;2755;50.728;7.108;2024-03-02T00:20:54;127.83;;;49.27;;
5465;SDS011;2755;50.728;7.108;2024-03-02T00:23:25;127.70;;;51.07;;
5465;SDS011;2755;50.728;7.108;2024-03-02T00:25:54;126.17;;;49.10;;
5465;SDS011;2755;50.728;7.108;2024-03-02T00:28:24;128.60;;;51.77;;
5465;SDS011;2755;50.728;7.108;2024-03-02T00:31:04;124.57;;;47.73;;
5465;SDS011;2755;50.728;7.108;2024-03-02T00:33:31;124.77;;;47.57;;
5465;SDS011;2755;50.728;7.108;2024-03-02T00:36:04;128.20;;;51.03;;
5465;SDS011;2755;50.728;7.108;2024-03-02T00:38:31;126.67;;;49.80;;
5465;SDS011;2755;50.728;7.108;2024-03-02T00:41:04;127.77;;;49.97;;
5465;SDS011;2755;50.728;7.108;2024-03-02T00:46:30;125.53;;;46.50;;
5465;SDS011;2755;50.728;7.108;2024-03-02T00:48:59;124.27;;;46.67;;
5465;SDS011;2755;50.728;7.108;2024-03-02T00:51:27;126.47;;;48.00;;
5465;SDS011;2755;50.728;7.108;2024-03-02T00:53:53;125.50;;;47.30;;
5465;SDS011;2755;50.728;7.108;2024-03-02T00:56:21;124.57;;;48.20;;
5465;SDS011;2755;50.728;7.108;2024-03-02T00:58:47;124.73;;;46.33;;
5465;SDS011;2755;50.728;7.108;2024-03-02T01:01:13;123.77;;;47.50;;
5465;SDS011;2755;50.728;7.108;2024-03-02T01:03:41;125.77;;;47.87;;
5465;SDS011;2755;50.728;7.108;2024-03-02T01:06:06;125.13;;;47.10;;
5465;SDS011;2755;50.728;7.108;2024-03-02T01:08:35;126.33;;;47.40;;
5465;SDS011;2755;50.728;7.108;2024-03-02T01:11:02;125.17;;;47.50;;
5465;SDS011;2755;50.728;7.108;2024-03-02T01:13:28;125.57;;;48.67;;
5465;SDS011;2755;50.728;7.108;2024-03-02T01:15:54;128.93;;;50.67;;
5465;SDS011;2755;50.728;7.108;2024-03-02T01:18:20;124.83;;;46.90;;
5465;SDS011;2755;50.728;7.108;2024-03-02T01:20:46;126.63;;;48.47;;
5465;SDS011;2755;50.728;7.108;2024-03-02T01:23:11;126.57;;;48.73;;
5465;SDS011;2755;50.728;7.108;2024-03-02T01:25:37;127.20;;;50.80;;
5465;SDS011;2755;50.728;7.108;2024-03-02T01:28:03;127.70;;;51.37;;
5465;SDS011;2755;50.728;7.108;2024-03-02T01:30:29;126.77;;;49.47;;
5465;SDS011;2755;50.728;7.108;2024-03-02T01:32:55;124.00;;;47.37;;
5465;SDS011;2755;50.728;7.108;2024-03-02T01:35:20;124.67;;;45.70;;
5465;SDS011;2755;50.728;7.108;2024-03-02T01:37:46;125.47;;;49.17;;
5465;SDS011;2755;50.728;7.108;2024-03-02T01:40:12;127.07;;;49.90;;
5465;SDS011;2755;50.728;7.108;2024-03-02T01:42:37;123.17;;;44.23;;
5465;SDS011;2755;50.728;7.108;2024-03-02T01:45:09;124.97;;;46.37;;
5465;SDS011;2755;50.728;7.108;2024-03-02T01:47:35;126.00;;;48.50;;
5465;SDS011;2755;50.728;7.108;2024-03-02T01:50:01;126.07;;;49.07;;
5465;SDS011;2755;50.728;7.108;2024-03-02T01:52:27;124.03;;;45.73;;
5465;SDS011;2755;50.728;7.108;2024-03-02T01:54:52;125.30;;;48.67;;
5465;SDS011;2755;50.728;7.108;2024-03-02T01:57:18;125.90;;;48.10;;
5465;SDS011;2755;50.728;7.108;2024-03-02T01:59:44;125.33;;;46.77;;
5465;SDS011;2755;50.728;7.108;2024-03-02T02:02:12;124.50;;;46.87;;
5465;SDS011;2755;50.728;7.108;2024-03-02T02:04:38;122.27;;;42.30;;
5465;SDS011;2755;50.728;7.108;2024-03-02T02:07:04;123.00;;;43.20;;
5465;SDS011;2755;50.728;7.108;2024-03-02T02:09:29;123.50;;;44.00;;
5465;SDS011;2755;50.728;7.108;2024-03-02T02:11:55;123.17;;;45.03;;
5465;SDS011;2755;50.728;7.108;2024-03-02T02:14:21;125.53;;;49.03;;
5465;SDS011;2755;50.728;7.108;2024-03-02T02:16:46;124.20;;;45.30;;
5465;SDS011;2755;50.728;7.108;2024-03-02T02:19:12;123.77;;;45.17;;
5465;SDS011;2755;50.728;7.108;2024-03-02T02:21:38;123.07;;;44.27;;
5465;SDS011;2755;50.728;7.108;2024-03-02T02:24:07;123.77;;;44.37;;
5465;SDS011;2755;50.728;7.108;2024-03-02T02:26:33;126.20;;;48.50;;
5465;SDS011;2755;50.728;7.108;2024-03-02T02:28:59;124.37;;;46.80;;
5465;SDS011;2755;50.728;7.108;2024-03-02T02:31:24;123.47;;;44.47;;
5465;SDS011;2755;50.728;7.108;2024-03-02T02:33:50;125.83;;;48.60;;
5465;SDS011;2755;50.728;7.108;2024-03-02T02:36:15;123.47;;;44.70;;
5465;SDS011;2755;50.728;7.108;2024-03-02T02:38:42;123.30;;;45.43;;
5465;SDS011;2755;50.728;7.108;2024-03-02T02:41:10;124.23;;;45.73;;
5465;SDS011;2755;50.728;7.108;2024-03-02T02:43:36;124.53;;;45.73;;
5465;SDS011;2755;50.728;7.108;2024-03-02T02:46:02;125.13;;;47.40;;
5465;SDS011;2755;50.728;7.108;2024-03-02T02:48:29;124.23;;;44.53;;
5465;SDS011;2755;50.728;7.108;2024-03-02T02:50:54;122.00;;;42.13;;
5465;SDS011;2755;50.728;7.108;2024-03-02T02:53:20;124.37;;;47.63;;
5465;SDS011;2755;50.728;7.108;2024-03-02T02:55:45;123.20;;;44.43;;
5465;SDS011;2755;50.728;7.108;2024-03-02T02:58:11;127.37;;;51.97;;
5465;SDS011;2755;50.728;7.108;2024-03-02T03:00:36;123.63;;;46.70;;
5465;SDS011;2755;50.728;7.108;2024-03-02T03:03:02;123.37;;;45.03;;
5465;SDS011;2755;50.728;7.108;2024-03-02T03:05:29;126.37;;;49.07;;
5465;SDS011;2755;50.728;7.108;2024-03-02T03:07:54;126.23;;;48.00;;
5465;SDS011;2755;50.728;7.108;2024-03-02T03:10:20;124.67;;;48.37;;
5465;SDS011;2755;50.728;7.108;2024-03-02T03:12:48;122.87;;;43.97;;
5465;SDS011;2755;50.728;7.108;2024-03-02T03:15:14;123.17;;;45.27;;
5465;SDS011;2755;50.728;7.108;2024-03-02T03:17:41;122.50;;;44.50;;
5465;SDS011;2755;50.728;7.108;2024-03-02T03:20:07;124.07;;;45.93;;
5465;SDS011;2755;50.728;7.108;2024-03-02T03:22:36;123.03;;;45.40;;
5465;SDS011;2755;50.728;7.108;2024-03-02T03:25:02;124.90;;;47.40;;
5465;SDS011;2755;50.728;7.108;2024-03-02T03:27:28;126.20;;;49.80;;
5465;SDS011;2755;50.728;7.108;2024-03-02T03:29:54;124.80;;;47.17;;
5465;SDS011;2755;50.728;7.108;2024-03-02T03:32:20;126.10;;;47.33;;
5465;SDS011;2755;50.728;7.108;2024-03-02T03:34:45;124.50;;;47.60;;
5465;SDS011;2755;50.728;7.108;2024-03-02T03:37:12;125.20;;;48.67;;
5465;SDS011;2755;50.728;7.108;2024-03-02T03:39:38;123.77;;;46.07;;
5465;SDS011;2755;50.728;7.108;2024-03-02T03:42:04;124.20;;;45.83;;
5465;SDS011;2755;50.728;7.108;2024-03-02T03:44:30;125.17;;;47.10;;
5465;SDS011;2755;50.728;7.108;2024-03-02T03:46:55;125.70;;;48.97;;
5465;SDS011;2755;50.728;7.108;2024-03-02T03:49:21;125.37;;;46.57;;
5465;SDS011;2755;50.728;7.108;2024-03-02T03:51:46;125.03;;;47.97;;
5465;SDS011;2755;50.728;7.108;2024-03-02T03:54:12;123.97;;;46.10;;
5465;SDS011;2755;50.728;7.108;2024-03-02T03:56:38;125.63;;;48.73;;
5465;SDS011;2755;50.728;7.108;2024-03-02T03:59:03;125.37;;;48.57;;
5465;SDS011;2755;50.728;7.108;2024-03-02T04:01:30;123.57;;;46.47;;
5465;SDS011;2755;50.728;7.108;2024-03-02T04:03:56;123.03;;;45.03;;
5465;SDS011;2755;50.728;7.108;2024-03-02T04:06:22;123.40;;;45.27;;
5465;SDS011;2755;50.728;7.108;2024-03-02T04:08:48;122.30;;;44.20;;
5465;SDS011;2755;50.728;7.108;2024-03-02T04:11:14;123.33;;;45.10;;
5465;SDS011;2755;50.728;7.108;2024-03-02T04:13:39;121.97;;;43.10;;
5465;SDS011;2755;50.728;7.108;2024-03-02T04:16:05;122.70;;;44.27;;
5465;SDS011;2755;50.728;7.108;2024-03-02T04:18:31;123.67;;;44.90;;
5465;SDS011;2755;50.728;7.108;2024-03-02T04:20:57;126.47;;;49.90;;
5465;SDS011;2755;50.728;7.108;2024-03-02T04:23:24;127.40;;;52.80;;
5465;SDS011;2755;50.728;7.108;2024-03-02T04:25:53;127.00;;;50.83;;
5465;SDS011;2755;50.728;7.108;2024-03-02T04:28:18;128.80;;;53.20;;
5465;SDS011;2755;50.728;7.108;2024-03-02T04:30:44;129.27;;;52.70;;
5465;SDS011;2755;50.728;7.108;2024-03-02T04:33:09;129.13;;;54.17;;
5465;SDS011;2755;50.728;7.108;2024-03-02T04:35:35;131.07;;;55.13;;
5465;SDS011;2755;50.728;7.108;2024-03-02T04:38:01;129.90;;;53.50;;
5465;SDS011;2755;50.728;7.108;2024-03-02T04:40:27;131.27;;;55.87;;
5465;SDS011;2755;50.728;7.108;2024-03-02T04:42:53;131.57;;;56.40;;
5465;SDS011;2755;50.728;7.108;2024-03-02T04:45:19;128.23;;;52.83;;
5465;SDS011;2755;50.728;7.108;2024-03-02T04:47:44;132.83;;;59.80;;
5465;SDS011;2755;50.728;7.108;2024-03-02T04:50:10;132.40;;;57.93;;
5465;SDS011;2755;50.728;7.108;2024-03-02T04:52:36;131.07;;;56.47;;
5465;SDS011;2755;50.728;7.108;2024-03-02T04:55:02;132.30;;;57.73;;
5465;SDS011;2755;50.728;7.108;2024-03-02T04:57:46;129.67;;;53.80;;
5465;SDS011;2755;50.728;7.108;2024-03-02T05:00:12;132.50;;;59.93;;
5465;SDS011;2755;50.728;7.108;2024-03-02T05:02:38;132.67;;;59.97;;
5465;SDS011;2755;50.728;7.108;2024-03-02T05:05:04;131.47;;;56.57;;
5465;SDS011;2755;50.728;7.108;2024-03-02T05:07:30;132.80;;;60.07;;
5465;SDS011;2755;50.728;7.108;2024-03-02T05:09:55;130.97;;;55.77;;
5465;SDS011;2755;50.728;7.108;2024-03-02T05:12:21;132.70;;;59.83;;
5465;SDS011;2755;50.728;7.108;2024-03-02T05:15:05;129.17;;;54.43;;
5465;SDS011;2755;50.728;7.108;2024-03-02T05:17:32;131.00;;;56.27;;
5465;SDS011;2755;50.728;7.108;2024-03-02T05:19:58;129.13;;;54.50;;
5465;SDS011;2755;50.728;7.108;2024-03-02T05:22:23;131.63;;;56.20;;
5465;SDS011;2755;50.728;7.108;2024-03-02T05:24:49;133.23;;;61.30;;
5465;SDS011;2755;50.728;7.108;2024-03-02T05:27:15;130.90;;;55.07;;
5465;SDS011;2755;50.728;7.108;2024-03-02T05:29:40;132.50;;;59.67;;
5465;SDS011;2755;50.728;7.108;2024-03-02T05:32:06;133.03;;;58.60;;
5465;SDS011;2755;50.728;7.108;2024-03-02T05:34:32;132.13;;;58.47;;
5465;SDS011;2755;50.728;7.108;2024-03-02T05:36:59;131.67;;;58.10;;
5465;SDS011;2755;50.728;7.108;2024-03-02T05:39:25;132.57;;;58.20;;
5465;SDS011;2755;50.728;7.108;2024-03-02T05:41:50;134.30;;;60.93;;
5465;SDS011;2755;50.728;7.108;2024-03-02T05:44:16;132.30;;;57.00;;
5465;SDS011;2755;50.728;7.108;2024-03-02T05:46:43;133.33;;;59.20;;
5465;SDS011;2755;50.728;7.108;2024-03-02T05:49:09;135.40;;;64.33;;
5465;SDS011;2755;50.728;7.108;2024-03-02T05:51:35;131.40;;;56.57;;
5465;SDS011;2755;50.728;7.108;2024-03-02T05:54:00;133.23;;;59.10;;
5465;SDS011;2755;50.728;7.108;2024-03-02T05:56:26;129.70;;;54.20;;
5465;SDS011;2755;50.728;7.108;2024-03-02T05:58:52;131.37;;;56.90;;
5465;SDS011;2755;50.728;7.108;2024-03-02T06:01:36;129.83;;;54.40;;
5465;SDS011;2755;50.728;7.108;2024-03-02T06:04:02;126.97;;;49.50;;
5465;SDS011;2755;50.728;7.108;2024-03-02T06:06:27;125.90;;;47.90;;
5465;SDS011;2755;50.728;7.108;2024-03-02T06:08:53;128.33;;;51.97;;
5465;SDS011;2755;50.728;7.108;2024-03-02T06:11:19;125.67;;;48.00;;
5465;SDS011;2755;50.728;7.108;2024-03-02T06:13:45;125.70;;;50.10;;
5465;SDS011;2755;50.728;7.108;2024-03-02T06:16:11;129.00;;;52.60;;
5465;SDS011;2755;50.728;7.108;2024-03-02T06:18:36;125.30;;;47.20;;
5465;SDS011;2755;50.728;7.108;2024-03-02T06:21:02;125.50;;;48.90;;
5465;SDS011;2755;50.728;7.108;2024-03-02T06:23:28;125.87;;;48.93;;
5465;SDS011;2755;50.728;7.108;2024-03-02T06:25:54;125.47;;;47.87;;
5465;SDS011;2755;50.728;7.108;2024-03-02T06:28:20;126.60;;;50.73;;
5465;SDS011;2755;50.728;7.108;2024-03-02T06:30:45;124.73;;;49.47;;
5465;SDS011;2755;50.728;7.108;2024-03-02T06:33:11;125.27;;;45.77;;
5465;SDS011;2755;50.728;7.108;2024-03-02T06:35:37;126.70;;;49.60;;
5465;SDS011;2755;50.728;7.108;2024-03-02T06:38:04;126.73;;;48.57;;
5465;SDS011;2755;50.728;7.108;2024-03-02T06:40:29;124.50;;;46.10;;
5465;SDS011;2755;50.728;7.108;2024-03-02T06:42:55;125.57;;;48.47;;
5465;SDS011;2755;50.728;7.108;2024-03-02T06:45:20;127.27;;;50.47;;
5465;SDS011;2755;50.728;7.108;2024-03-02T06:47:46;125.23;;;49.00;;
5465;SDS011;2755;50.728;7.108;2024-03-02T06:50:11;128.50;;;53.13;;
5465;SDS011;2755;50.728;7.108;2024-03-02T06:52:37;126.77;;;51.63;;
5465;SDS011;2755;50.728;7.108;2024-03-02T06:55:03;126.07;;;49.03;;
5465;SDS011;2755;50.728;7.108;2024-03-02T06:57:30;130.97;;;56.90;;
5465;SDS011;2755;50.728;7.108;2024-03-02T06:59:55;134.40;;;61.50;;
5465;SDS011;2755;50.728;7.108;2024-03-02T07:02:23;134.50;;;61.00;;
5465;SDS011;2755;50.728;7.108;2024-03-02T07:04:51;133.83;;;59.90;;
5465;SDS011;2755;50.728;7.108;2024-03-02T07:07:17;135.13;;;63.40;;
5465;SDS011;2755;50.728;7.108;2024-03-02T07:09:43;128.77;;;54.43;;
5465;SDS011;2755;50.728;7.108;2024-03-02T07:12:08;136.10;;;62.80;;
5465;SDS011;2755;50.728;7.108;2024-03-02T07:14:35;132.77;;;59.37;;
5465;SDS011;2755;50.728;7.108;2024-03-02T07:17:22;134.27;;;61.73;;
5465;SDS011;2755;50.728;7.108;2024-03-02T07:19:47;130.53;;;54.70;;
5465;SDS011;2755;50.728;7.108;2024-03-02T07:22:13;129.37;;;51.80;;
5465;SDS011;2755;50.728;7.108;2024-03-02T07:24:42;128.87;;;51.47;;
5465;SDS011;2755;50.728;7.108;2024-03-02T07:27:11;124.73;;;45.43;;
5465;SDS011;2755;50.728;7.108;2024-03-02T07:29:38;122.87;;;43.97;;
5465;SDS011;2755;50.728;7.108;2024-03-02T07:32:05;121.27;;;41.80;;
5465;SDS011;2755;50.728;7.108;2024-03-02T07:34:31;125.20;;;45.80;;
5465;SDS011;2755;50.728;7.108;2024-03-02T07:36:56;123.80;;;43.67;;
5465;SDS011;2755;50.728;7.108;2024-03-02T07:39:22;124.60;;;44.97;;
5465;SDS011;2755;50.728;7.108;2024-03-02T07:41:48;131.83;;;54.67;;
5465;SDS011;2755;50.728;7.108;2024-03-02T07:44:14;136.67;;;64.23;;
5465;SDS011;2755;50.728;7.108;2024-03-02T07:46:43;140.50;;;70.10;;
5465;SDS011;2755;50.728;7.108;2024-03-02T07:49:09;136.53;;;60.87;;
5465;SDS011;2755;50.728;7.108;2024-03-02T07:51:35;137.67;;;63.13;;
5465;SDS011;2755;50.728;7.108;2024-03-02T07:54:03;133.97;;;57.43;;
5465;SDS011;2755;50.728;7.108;2024-03-02T07:56:29;133.20;;;56.93;;
5465;SDS011;2755;50.728;7.108;2024-03-02T07:58:55;134.07;;;58.10;;
5465;SDS011;2755;50.728;7.108;2024-03-02T08:01:22;137.67;;;59.80;;
5465;SDS011;2755;50.728;7.108;2024-03-02T08:03:48;136.00;;;61.57;;
5465;SDS011;2755;50.728;7.108;2024-03-02T08:06:15;136.90;;;59.77;;
5465;SDS011;2755;50.728;7.108;2024-03-02T08:08:45;134.80;;;57.60;;
5465;SDS011;2755;50.728;7.108;2024-03-02T08:11:11;135.47;;;58.03;;
5465;SDS011;2755;50.728;7.108;2024-03-02T08:13:36;134.33;;;56.00;;
5465;SDS011;2755;50.728;7.108;2024-03-02T08:16:03;138.00;;;64.17;;
5465;SDS011;2755;50.728;7.108;2024-03-02T08:18:31;133.10;;;56.47;;
5465;SDS011;2755;50.728;7.108;2024-03-02T08:20:57;133.93;;;56.60;;
5465;SDS011;2755;50.728;7.108;2024-03-02T08:23:23;133.50;;;57.00;;
5465;SDS011;2755;50.728;7.108;2024-03-02T08:25:49;132.30;;;55.83;;
5465;SDS011;2755;50.728;7.108;2024-03-02T08:28:15;132.03;;;56.50;;
5465;SDS011;2755;50.728;7.108;2024-03-02T08:30:40;135.00;;;57.87;;
5465;SDS011;2755;50.728;7.108;2024-03-02T08:33:06;135.03;;;59.27;;
5465;SDS011;2755;50.728;7.108;2024-03-02T08:35:32;134.10;;;59.33;;
5465;SDS011;2755;50.728;7.108;2024-03-02T08:38:04;131.77;;;56.37;;
5465;SDS011;2755;50.728;7.108;2024-03-02T08:40:29;132.57;;;56.80;;
5465;SDS011;2755;50.728;7.108;2024-03-02T08:42:56;132.77;;;56.20;;
5465;SDS011;2755;50.728;7.108;2024-03-02T08:45:21;131.07;;;55.07;;
5465;SDS011;2755;50.728;7.108;2024-03-02T08:47:47;133.77;;;57.90;;
5465;SDS011;2755;50.728;7.108;2024-03-02T08:50:13;134.67;;;58.87;;
5465;SDS011;2755;50.728;7.108;2024-03-02T08:52:38;134.90;;;62.47;;
5465;SDS011;2755;50.728;7.108;2024-03-02T08:55:04;133.57;;;59.90;;
5465;SDS011;2755;50.728;7.108;2024-03-02T08:57:30;137.83;;;65.97;;
5465;SDS011;2755;50.728;7.108;2024-03-02T08:59:56;136.87;;;65.60;;
5465;SDS011;2755;50.728;7.108;2024-03-02T09:02:22;136.77;;;66.03;;
5465;SDS011;2755;50.728;7.108;2024-03-02T09:04:48;140.57;;;71.80;;
5465;SDS011;2755;50.728;7.108;2024-03-02T09:07:14;142.03;;;75.63;;
5465;SDS011;2755;50.728;7.108;2024-03-02T09:09:40;145.97;;;80.53;;
5465;SDS011;2755;50.728;7.108;2024-03-02T09:12:06;146.23;;;81.70;;
5465;SDS011;2755;50.728;7.108;2024-03-02T09:14:32;147.80;;;83.07;;
5465;SDS011;2755;50.728;7.108;2024-03-02T09:16:58;149.33;;;89.07;;
5465;SDS011;2755;50.728;7.108;2024-03-02T09:19:24;150.10;;;88.67;;
5465;SDS011;2755;50.728;7.108;2024-03-02T09:21:50;150.37;;;86.07;;
5465;SDS011;2755;50.728;7.108;2024-03-02T09:24:16;150.47;;;88.83;;
5465;SDS011;2755;50.728;7.108;2024-03-02T09:26:41;154.20;;;91.57;;
5465;SDS011;2755;50.728;7.108;2024-03-02T09:29:07;153.77;;;93.43;;
5465;SDS011;2755;50.728;7.108;2024-03-02T09:31:32;153.23;;;91.60;;
5465;SDS011;2755;50.728;7.108;2024-03-02T09:33:58;152.77;;;92.20;;
5465;SDS011;2755;50.728;7.108;2024-03-02T09:36:24;154.00;;;93.90;;
5465;SDS011;2755;50.728;7.108;2024-03-02T09:38:49;154.10;;;94.47;;
5465;SDS011;2755;50.728;7.108;2024-03-02T09:41:15;156.77;;;99.37;;
5465;SDS011;2755;50.728;7.108;2024-03-02T09:43:41;154.65;;;96.10;;
5465;SDS011;2755;50.728;7.108;2024-03-02T09:46:10;153.30;;;95.70;;
5465;SDS011;2755;50.728;7.108;2024-03-02T09:48:36;148.30;;;84.80;;
5465;SDS011;2755;50.728;7.108;2024-03-02T09:51:02;143.87;;;77.70;;
5465;SDS011;2755;50.728;7.108;2024-03-02T09:53:31;144.50;;;78.97;;
5465;SDS011;2755;50.728;7.108;2024-03-02T09:55:59;145.83;;;82.77;;
5465;SDS011;2755;50.728;7.108;2024-03-02T09:58:25;147.67;;;85.40;;
5465;SDS011;2755;50.728;7.108;2024-03-02T10:00:51;149.40;;;87.97;;
5465;SDS011;2755;50.728;7.108;2024-03-02T10:03:16;146.57;;;81.87;;
5465;SDS011;2755;50.728;7.108;2024-03-02T10:05:43;145.60;;;80.30;;
5465;SDS011;2755;50.728;7.108;2024-03-02T10:08:09;144.20;;;75.93;;
5465;SDS011;2755;50.728;7.108;2024-03-02T10:10:39;144.07;;;77.17;;
5465;SDS011;2755;50.728;7.108;2024-03-02T10:13:06;146.07;;;78.77;;
5465;SDS011;2755;50.728;7.108;2024-03-02T10:15:32;151.73;;;89.80;;
5465;SDS011;2755;50.728;7.108;2024-03-02T10:17:58;147.53;;;81.20;;
5465;SDS011;2755;50.728;7.108;2024-03-02T10:20:24;147.27;;;80.83;;
5465;SDS011;2755;50.728;7.108;2024-03-02T10:22:51;147.37;;;79.87;;
5465;SDS011;2755;50.728;7.108;2024-03-02T10:25:29;144.17;;;73.20;;
5465;SDS011;2755;50.728;7.108;2024-03-02T10:27:58;142.07;;;69.37;;
5465;SDS011;2755;50.728;7.108;2024-03-02T10:30:25;141.07;;;68.40;;
5465;SDS011;2755;50.728;7.108;2024-03-02T10:32:54;139.90;;;66.73;;
5465;SDS011;2755;50.728;7.108;2024-03-02T10:35:20;141.90;;;69.67;;
5465;SDS011;2755;50.728;7.108;2024-03-02T10:37:50;138.87;;;65.87;;
5465;SDS011;2755;50.728;7.108;2024-03-02T10:40:18;144.27;;;76.00;;
5465;SDS011;2755;50.728;7.108;2024-03-02T10:42:46;142.97;;;73.00;;
5465;SDS011;2755;50.728;7.108;2024-03-02T10:45:13;145.00;;;76.87;;
5465;SDS011;2755;50.728;7.108;2024-03-02T10:47:40;144.17;;;76.27;;
5465;SDS011;2755;50.728;7.108;2024-03-02T10:50:07;146.93;;;81.17;;
5465;SDS011;2755;50.728;7.108;2024-03-02T10:52:36;149.00;;;84.97;;
5465;SDS011;2755;50.728;7.108;2024-03-02T10:55:05;154.57;;;96.83;;
5465;SDS011;2755;50.728;7.108;2024-03-02T11:00:14;149.23;;;84.67;;
5465;SDS011;2755;50.728;7.108;2024-03-02T11:02:46;149.27;;;85.97;;
5465;SDS011;2755;50.728;7.108;2024-03-02T11:05:22;147.27;;;79.87;;
5465;SDS011;2755;50.728;7.108;2024-03-02T11:07:53;144.33;;;74.20;;
5465;SDS011;2755;50.728;7.108;2024-03-02T11:10:41;142.50;;;73.07;;
5465;SDS011;2755;50.728;7.108;2024-03-02T11:13:13;143.27;;;73.37;;
5465;SDS011;2755;50.728;7.108;2024-03-02T11:15:43;146.87;;;78.43;;
5465;SDS011;2755;50.728;7.108;2024-03-02T11:18:10;144.13;;;74.00;;
5465;SDS011;2755;50.728;7.108;2024-03-02T11:20:37;148.13;;;81.53;;
5465;SDS011;2755;50.728;7.108;2024-03-02T11:23:05;150.67;;;86.13;;
5465;SDS011;2755;50.728;7.108;2024-03-02T11:25:31;157.60;;;94.57;;
5465;SDS011;2755;50.728;7.108;2024-03-02T11:28:01;147.23;;;78.97;;
5465;SDS011;2755;50.728;7.108;2024-03-02T11:32:59;148.50;;;82.37;;
5465;SDS011;2755;50.728;7.108;2024-03-02T11:35:28;145.07;;;77.37;;
5465;SDS011;2755;50.728;7.108;2024-03-02T11:37:54;148.37;;;83.27;;
5465;SDS011;2755;50.728;7.108;2024-03-02T11:40:22;146.00;;;79.30;;
5465;SDS011;2755;50.728;7.108;2024-03-02T11:42:50;148.77;;;83.87;;
5465;SDS011;2755;50.728;7.108;2024-03-02T11:45:16;147.80;;;82.37;;
5465;SDS011;2755;50.728;7.108;2024-03-02T11:47:46;149.23;;;84.07;;
5465;SDS011;2755;50.728;7.108;2024-03-02T11:50:28;149.57;;;85.13;;
5465;SDS011;2755;50.728;7.108;2024-03-02T11:52:53;149.67;;;84.57;;
5465;SDS011;2755;50.728;7.108;2024-03-02T11:55:21;149.40;;;86.03;;
5465;SDS011;2755;50.728;7.108;2024-03-02T11:57:47;147.73;;;80.33;;
5465;SDS011;2755;50.728;7.108;2024-03-02T12:00:17;155.37;;;93.87;;
5465;SDS011;2755;50.728;7.108;2024-03-02T12:02:44;157.37;;;98.30;;
5465;SDS011;2755;50.728;7.108;2024-03-02T12:05:14;155.70;;;94.80;;
5465;SDS011;2755;50.728;7.108;2024-03-02T12:07:41;157.27;;;96.97;;
5465;SDS011;2755;50.728;7.108;2024-03-02T12:10:08;157.27;;;95.90;;
5465;SDS011;2755;50.728;7.108;2024-03-02T12:12:34;156.03;;;94.83;;
5465;SDS011;2755;50.728;7.108;2024-03-02T12:14:59;152.67;;;88.30;;
5465;SDS011;2755;50.728;7.108;2024-03-02T12:17:26;148.43;;;81.80;;
5465;SDS011;2755;50.728;7.108;2024-03-02T12:19:51;150.57;;;85.93;;
5465;SDS011;2755;50.728;7.108;2024-03-02T12:22:17;148.80;;;84.33;;
5465;SDS011;2755;50.728;7.108;2024-03-02T12:24:43;150.63;;;88.33;;
5465;SDS011;2755;50.728;7.108;2024-03-02T12:27:12;147.97;;;83.77;;
5465;SDS011;2755;50.728;7.108;2024-03-02T12:29:40;151.13;;;90.27;;
5465;SDS011;2755;50.728;7.108;2024-03-02T12:32:06;144.77;;;78.70;;
5465;SDS011;2755;50.728;7.108;2024-03-02T12:34:32;146.83;;;83.30;;
5465;SDS011;2755;50.728;7.108;2024-03-02T12:36:58;145.27;;;79.70;;
5465;SDS011;2755;50.728;7.108;2024-03-02T12:39:23;144.90;;;79.40;;
5465;SDS011;2755;50.728;7.108;2024-03-02T12:41:50;145.43;;;81.00;;
5465;SDS011;2755;50.728;7.108;2024-03-02T12:44:18;147.47;;;83.10;;
5465;SDS011;2755;50.728;7.108;2024-03-02T12:46:44;147.27;;;83.77;;
5465;SDS011;2755;50.728;7.108;2024-03-02T12:49:11;148.00;;;83.93;;
5465;SDS011;2755;50.728;7.108;2024-03-02T12:51:39;144.60;;;77.93;;
5465;SDS011;2755;50.728;7.108;2024-03-02T12:54:06;147.57;;;83.23;;
5465;SDS011;2755;50.728;7.108;2024-03-02T12:56:33;145.67;;;80.77;;
5465;SDS011;2755;50.728;7.108;2024-03-02T12:59:00;148.20;;;85.27;;
5465;SDS011;2755;50.728;7.108;2024-03-02T13:01:25;143.80;;;77.63;;
5465;SDS011;2755;50.728;7.108;2024-03-02T13:03:55;145.57;;;79.27;;
5465;SDS011;2755;50.728;7.108;2024-03-02T13:06:22;146.97;;;83.27;;
5465;SDS011;2755;50.728;7.108;2024-03-02T13:08:48;149.47;;;85.97;;
5465;SDS011;2755;50.728;7.108;2024-03-02T13:11:15;149.00;;;85.87;;
5465;SDS011;2755;50.728;7.108;2024-03-02T13:13:41;148.97;;;86.53;;
5465;SDS011;2755;50.728;7.108;2024-03-02T13:16:10;148.17;;;83.37;;
5465;SDS011;2755;50.728;7.108;2024-03-02T13:18:40;147.20;;;83.63;;
5465;SDS011;2755;50.728;7.108;2024-03-02T13:21:06;146.27;;;81.80;;
5465;SDS011;2755;50.728;7.108;2024-03-02T13:23:32;146.20;;;80.90;;
5465;SDS011;2755;50.728;7.108;2024-03-02T13:25:58;151.17;;;87.27;;
5465;SDS011;2755;50.728;7.108;2024-03-02T13:28:24;148.07;;;83.90;;
5465;SDS011;2755;50.728;7.108;2024-03-02T13:30:50;148.73;;;86.67;;
5465;SDS011;2755;50.728;7.108;2024-03-02T13:33:16;145.57;;;80.00;;
5465;SDS011;2755;50.728;7.108;2024-03-02T13:35:48;148.57;;;81.07;;
5465;SDS011;2755;50.728;7.108;2024-03-02T13:38:15;147.63;;;84.27;;
5465;SDS011;2755;50.728;7.108;2024-03-02T13:40:41;148.27;;;84.37;;
5465;SDS011;2755;50.728;7.108;2024-03-02T13:43:06;149.17;;;86.30;;
5465;SDS011;2755;50.728;7.108;2024-03-02T13:45:32;148.80;;;86.30;;
5465;SDS011;2755;50.728;7.108;2024-03-02T14:24:18;148.87;;;83.70;;
5465;SDS011;2755;50.728;7.108;2024-03-02T14:26:45;148.17;;;83.10;;
5465;SDS011;2755;50.728;7.108;2024-03-02T14:29:11;149.10;;;85.77;;
5465;SDS011;2755;50.728;7.108;2024-03-02T14:31:36;147.47;;;85.00;;
5465;SDS011;2755;50.728;7.108;2024-03-02T14:34:02;146.40;;;80.33;;
5465;SDS011;2755;50.728;7.108;2024-03-02T14:36:27;148.23;;;85.73;;
5465;SDS011;2755;50.728;7.108;2024-03-02T14:38:53;149.87;;;87.97;;
5465;SDS011;2755;50.728;7.108;2024-03-02T14:41:19;147.63;;;82.77;;
5465;SDS011;2755;50.728;7.108;2024-03-02T14:43:45;148.90;;;85.70;;
5465;SDS011;2755;50.728;7.108;2024-03-02T14:46:11;149.77;;;88.30;;
5465;SDS011;2755;50.728;7.108;2024-03-02T14:48:37;149.10;;;87.80;;
5465;SDS011;2755;50.728;7.108;2024-03-02T14:51:03;149.30;;;87.77;;
5465;SDS011;2755;50.728;7.108;2024-03-02T14:53:29;150.77;;;89.10;;
5465;SDS011;2755;50.728;7.108;2024-03-02T14:55:55;150.73;;;89.57;;
5465;SDS011;2755;50.728;7.108;2024-03-02T14:58:20;151.27;;;90.30;;
5465;SDS011;2755;50.728;7.108;2024-03-02T15:00:46;149.23;;;87.17;;
5465;SDS011;2755;50.728;7.108;2024-03-02T15:03:12;148.73;;;84.77;;
5465;SDS011;2755;50.728;7.108;2024-03-02T15:05:38;148.57;;;86.33;;
5465;SDS011;2755;50.728;7.108;2024-03-02T15:08:05;148.67;;;85.53;;
5465;SDS011;2755;50.728;7.108;2024-03-02T15:10:31;149.30;;;86.83;;
5465;SDS011;2755;50.728;7.108;2024-03-02T15:12:57;148.37;;;86.07;;
5465;SDS011;2755;50.728;7.108;2024-03-02T15:15:23;146.47;;;80.33;;
5465;SDS011;2755;50.728;7.108;2024-03-02T15:17:49;145.27;;;80.93;;